createdAt,value
2023-02-05T00:01:13.382Z,4.80
2023-02-05T00:03:42.705Z,3.77
2023-02-05T00:06:12.738Z,4.57
2023-02-05T00:08:41.025Z,4.80
2023-02-05T00:11:10.382Z,5.53
2023-02-05T00:13:39.487Z,5.37
2023-02-05T00:16:14.322Z,7.00
2023-02-05T00:18:42.901Z,5.17
2023-02-05T00:21:11.413Z,5.70
2023-02-05T00:23:40.321Z,4.23
2023-02-05T00:26:10.745Z,5.03
2023-02-05T00:28:39.711Z,4.93
2023-02-05T00:31:13.975Z,4.80
2023-02-05T00:33:42.682Z,4.37
2023-02-05T00:36:12.975Z,4.57
2023-02-05T00:38:42.045Z,4.30
2023-02-05T00:41:10.545Z,6.47
2023-02-05T00:43:38.895Z,4.53
2023-02-05T00:46:07.775Z,4.57
2023-02-05T00:48:37.573Z,5.37
2023-02-05T00:51:06.426Z,3.43
2023-02-05T00:53:34.780Z,4.00
2023-02-05T00:56:03.116Z,4.40
2023-02-05T00:58:31.483Z,5.50
2023-02-05T01:00:59.869Z,4.77
2023-02-05T01:03:28.240Z,3.67
2023-02-05T01:05:58.262Z,3.83
2023-02-05T01:08:26.606Z,3.93
2023-02-05T01:10:56.849Z,4.93
2023-02-05T01:13:25.204Z,4.33
2023-02-05T01:15:53.482Z,3.20
2023-02-05T01:18:21.956Z,5.77
2023-02-05T01:20:50.304Z,3.47
2023-02-05T01:23:19.991Z,3.73
2023-02-05T01:25:48.243Z,3.43
2023-02-05T01:28:16.799Z,3.53
2023-02-05T01:30:49.041Z,3.83
2023-02-05T01:33:17.684Z,3.73
2023-02-05T01:35:46.324Z,4.07
2023-02-05T01:38:15.290Z,3.27
2023-02-05T01:40:44.950Z,3.33
2023-02-05T01:43:14.822Z,4.07
2023-02-05T01:45:52.502Z,2.60
2023-02-05T01:48:26.404Z,3.17
2023-02-05T01:51:00.147Z,4.07
2023-02-05T01:53:32.672Z,2.43
2023-02-05T01:56:05.230Z,4.47
2023-02-05T01:58:38.180Z,3.27
2023-02-05T02:01:07.032Z,3.90
2023-02-05T02:03:35.404Z,2.63
2023-02-05T02:06:05.008Z,4.20
2023-02-05T02:08:33.935Z,4.13
2023-02-05T02:11:06.182Z,3.37
2023-02-05T02:13:36.202Z,4.20
2023-02-05T02:16:05.914Z,3.73
2023-02-05T02:18:36.488Z,3.50
2023-02-05T02:21:38.074Z,3.17
2023-02-05T02:24:18.846Z,4.60
2023-02-05T02:27:02.886Z,4.30
2023-02-05T02:29:38.743Z,2.93
2023-02-05T02:32:15.436Z,2.77
2023-02-05T02:34:49.729Z,4.20
2023-02-05T02:37:25.477Z,2.23
2023-02-05T02:39:59.067Z,4.03
2023-02-05T02:42:34.311Z,2.60
2023-02-05T02:45:06.824Z,2.90
2023-02-05T02:47:40.035Z,3.90
2023-02-05T02:50:14.446Z,3.37
2023-02-05T02:52:46.027Z,3.50
2023-02-05T02:55:17.246Z,2.33
2023-02-05T02:57:49.077Z,1.93
2023-02-05T03:00:22.404Z,2.83
2023-02-05T03:02:53.567Z,2.73
2023-02-05T03:05:24.964Z,2.43
2023-02-05T03:07:57.751Z,2.60
2023-02-05T03:10:31.420Z,2.30
2023-02-05T03:12:59.799Z,2.03
2023-02-05T03:15:29.608Z,1.37
2023-02-05T03:17:58.033Z,2.20
2023-02-05T03:20:29.409Z,3.27
2023-02-05T03:22:58.360Z,3.40
2023-02-05T03:25:29.387Z,1.30
2023-02-05T03:27:58.966Z,1.27
2023-02-05T03:30:33.967Z,1.93
2023-02-05T03:33:15.241Z,1.40
2023-02-05T03:35:47.724Z,1.80
2023-02-05T03:38:32.691Z,1.53
2023-02-05T03:41:06.312Z,2.47
2023-02-05T03:43:49.081Z,2.93
2023-02-05T03:46:21.145Z,2.70
2023-02-05T03:49:04.478Z,2.70
2023-02-05T03:51:39.533Z,4.07
2023-02-05T03:54:14.113Z,2.27
2023-02-05T03:56:51.722Z,1.43
2023-02-05T03:59:21.242Z,1.80
2023-02-05T04:01:51.260Z,2.20
2023-02-05T04:04:19.839Z,2.10
2023-02-05T04:06:49.207Z,1.87
2023-02-05T04:09:17.477Z,3.20
2023-02-05T04:11:45.738Z,2.17
2023-02-05T04:14:14.060Z,4.07
2023-02-05T04:16:42.399Z,1.73
2023-02-05T04:19:12.132Z,1.97
2023-02-05T04:21:40.389Z,1.80
2023-02-05T04:24:09.349Z,2.27
2023-02-05T04:26:37.730Z,2.07
2023-02-05T04:29:06.036Z,1.93
2023-02-05T04:31:34.385Z,1.60
2023-02-05T04:34:02.731Z,3.50
2023-02-05T04:36:32.523Z,6.73
2023-02-05T04:39:00.814Z,2.43
2023-02-05T04:41:29.103Z,6.20
2023-02-05T04:43:57.460Z,2.03
2023-02-05T04:46:25.751Z,2.50
2023-02-05T04:48:53.996Z,1.50
2023-02-05T04:51:22.300Z,2.20
2023-02-05T04:53:52.016Z,2.00
2023-02-05T04:56:20.296Z,2.17
2023-02-05T04:58:48.592Z,2.25
2023-02-05T05:01:18.667Z,2.30
2023-02-05T05:03:47.292Z,3.63
2023-02-05T05:06:16.055Z,2.33
2023-02-05T05:08:44.780Z,2.17
2023-02-05T05:11:20.185Z,3.72
2023-02-05T05:13:49.362Z,4.80
2023-02-05T05:16:17.643Z,4.07
2023-02-05T05:18:46.003Z,3.33
2023-02-05T05:21:14.396Z,2.93
2023-02-05T05:23:42.657Z,3.10
2023-02-05T05:26:14.613Z,2.43
2023-02-05T05:28:42.976Z,2.20
2023-02-05T05:31:14.416Z,4.30
2023-02-05T05:33:42.735Z,2.07
2023-02-05T05:36:11.310Z,1.77
2023-02-05T05:38:39.873Z,3.13
2023-02-05T05:41:27.851Z,3.20
2023-02-05T05:43:57.604Z,4.37
2023-02-05T05:46:27.181Z,4.75
2023-02-05T05:48:57.243Z,9.13
2023-02-05T05:51:26.875Z,3.90
2023-02-05T05:53:55.780Z,5.10
2023-02-05T05:56:24.192Z,4.97
2023-02-05T05:58:52.676Z,6.93
2023-02-05T06:01:23.070Z,3.40
2023-02-05T06:03:51.954Z,3.40
2023-02-05T06:06:20.366Z,3.57
2023-02-05T06:08:48.709Z,7.37
2023-02-05T06:11:16.983Z,6.17
2023-02-05T06:13:45.239Z,7.77
2023-02-05T06:16:13.606Z,4.67
2023-02-05T06:18:43.309Z,4.80
2023-02-05T06:21:11.588Z,9.47
2023-02-05T06:23:39.914Z,5.03
2023-02-05T06:26:08.270Z,5.10
2023-02-05T06:28:36.671Z,3.90
2023-02-05T06:31:05.389Z,3.07
2023-02-05T06:33:33.760Z,3.93
2023-02-05T06:36:03.505Z,3.80
2023-02-05T06:38:31.874Z,4.07
2023-02-05T06:41:00.263Z,4.82
2023-02-05T06:43:28.557Z,4.10
2023-02-05T06:45:56.857Z,4.47
2023-02-05T06:48:25.209Z,2.93
2023-02-05T06:50:53.547Z,3.53
2023-02-05T06:53:23.317Z,2.63
2023-02-05T06:55:51.569Z,5.13
2023-02-05T06:58:19.897Z,6.20
2023-02-05T07:00:48.188Z,4.93
2023-02-05T07:03:16.498Z,9.40
2023-02-05T07:05:44.801Z,2.97
2023-02-05T07:08:14.950Z,3.83
2023-02-05T07:10:44.676Z,3.13
2023-02-05T07:13:13.074Z,7.00
2023-02-05T07:15:41.414Z,3.77
2023-02-05T07:18:09.701Z,4.70
2023-02-05T07:20:38.534Z,5.47
2023-02-05T07:23:08.118Z,6.00
2023-02-05T07:25:38.131Z,3.07
2023-02-05T07:28:09.555Z,3.73
2023-02-05T07:30:38.253Z,3.80
2023-02-05T07:33:06.807Z,7.77
2023-02-05T07:35:39.396Z,4.43
2023-02-05T07:38:07.759Z,4.90
2023-02-05T07:40:37.927Z,4.53
2023-02-05T07:43:07.595Z,2.80
2023-02-05T07:45:36.177Z,3.77
2023-02-05T07:48:05.043Z,2.30
2023-02-05T07:50:33.444Z,3.67
2023-02-05T07:53:01.716Z,4.23
2023-02-05T07:55:29.978Z,4.10
2023-02-05T07:57:58.308Z,7.10
2023-02-05T08:00:28.016Z,4.57
2023-02-05T08:02:56.337Z,5.63
2023-02-05T08:05:24.713Z,2.97
2023-02-05T08:07:53.007Z,5.23
2023-02-05T08:10:21.765Z,4.07
2023-02-05T08:12:50.074Z,4.17
2023-02-05T08:15:18.640Z,3.60
2023-02-05T08:17:48.347Z,4.15
2023-02-05T08:20:17.008Z,3.17
2023-02-05T08:22:45.589Z,4.23
2023-02-05T08:25:16.003Z,3.90
2023-02-05T08:27:46.193Z,5.07
2023-02-05T08:30:17.061Z,5.27
2023-02-05T08:32:51.048Z,4.73
2023-02-05T08:35:19.681Z,5.03
2023-02-05T08:37:48.053Z,2.27
2023-02-05T08:40:16.392Z,3.77
2023-02-05T08:42:44.694Z,2.43
2023-02-05T08:45:13.017Z,3.80
2023-02-05T08:47:41.270Z,2.03
2023-02-05T08:50:11.774Z,2.70
2023-02-05T08:52:40.148Z,2.13
2023-02-05T08:55:08.745Z,2.60
2023-02-05T08:57:37.199Z,2.63
2023-02-05T09:00:06.677Z,2.40
2023-02-05T09:02:35.045Z,4.80
2023-02-05T09:05:08.791Z,3.77
2023-02-05T09:07:39.514Z,3.20
2023-02-05T09:10:09.294Z,2.57
2023-02-05T09:12:37.827Z,4.30
2023-02-05T09:15:06.670Z,3.03
2023-02-05T09:17:41.104Z,2.70
2023-02-05T09:20:10.518Z,1.90
2023-02-05T09:22:40.198Z,2.40
2023-02-05T09:25:09.530Z,2.73
2023-02-05T09:27:37.938Z,4.00
2023-02-05T09:30:06.771Z,3.80
2023-02-05T09:32:35.022Z,2.83
2023-02-05T09:35:03.353Z,2.43
2023-02-05T09:37:31.663Z,5.27
2023-02-05T09:42:59.645Z,2.83
2023-02-05T09:45:40.242Z,2.83
2023-02-05T09:48:34.544Z,3.10
2023-02-05T09:51:03.548Z,3.20
2023-02-05T09:53:37.904Z,2.70
2023-02-05T09:56:10.747Z,3.30
2023-02-05T09:58:43.272Z,2.90
2023-02-05T10:01:19.314Z,3.33
2023-02-05T10:03:50.788Z,2.57
2023-02-05T10:06:40.214Z,2.57
2023-02-05T10:09:18.632Z,2.47
2023-02-05T10:11:55.909Z,4.77
2023-02-05T10:14:33.591Z,3.83
2023-02-05T10:17:29.666Z,2.97
2023-02-05T10:20:13.841Z,3.93
2023-02-05T10:22:55.479Z,6.57
2023-02-05T10:25:36.130Z,3.50
2023-02-05T10:28:16.016Z,3.90
2023-02-05T10:30:51.144Z,3.03
2023-02-05T10:33:28.747Z,1.97
2023-02-05T10:36:02.252Z,5.33
2023-02-05T10:38:34.833Z,5.10
2023-02-05T10:41:08.648Z,5.07
2023-02-05T10:43:45.004Z,3.77
2023-02-05T10:46:15.862Z,4.38
2023-02-05T10:48:47.285Z,3.37
2023-02-05T10:51:20.909Z,3.13
2023-02-05T10:53:49.256Z,2.67
2023-02-05T10:56:19.951Z,3.57
2023-02-05T10:58:54.795Z,4.40
2023-02-05T11:01:25.039Z,6.03
2023-02-05T11:03:57.854Z,4.77
2023-02-05T11:06:29.430Z,4.33
2023-02-05T11:08:57.943Z,3.77
2023-02-05T11:11:29.522Z,5.70
2023-02-05T11:14:01.258Z,2.63
2023-02-05T11:16:39.751Z,2.20
2023-02-05T11:19:20.769Z,4.33
2023-02-05T11:21:52.045Z,4.93
2023-02-05T11:24:32.782Z,5.63
2023-02-05T11:27:30.850Z,5.43
2023-02-05T11:30:37.689Z,3.50
2023-02-05T11:33:30.801Z,5.37
2023-02-05T11:36:02.981Z,4.23
2023-02-05T11:38:43.218Z,3.60
2023-02-05T11:41:14.046Z,2.93
2023-02-05T11:43:47.864Z,5.03
2023-02-05T11:46:20.193Z,2.80
2023-02-05T11:48:57.207Z,4.03
2023-02-05T11:51:42.626Z,5.20
2023-02-05T11:54:20.852Z,3.65
2023-02-05T11:57:08.618Z,2.87
2023-02-05T11:59:37.822Z,2.77
2023-02-05T12:02:31.934Z,4.47
2023-02-05T12:05:07.803Z,4.17
2023-02-05T12:07:40.681Z,4.33
2023-02-05T12:10:17.454Z,4.73
2023-02-05T12:12:54.972Z,4.53
2023-02-05T12:15:27.843Z,3.97
2023-02-05T12:18:07.855Z,4.67
2023-02-05T12:20:41.373Z,3.70
2023-02-05T12:23:31.483Z,4.80
2023-02-05T12:26:27.780Z,4.30
2023-02-05T12:29:09.383Z,4.57
2023-02-05T12:31:49.690Z,5.23
2023-02-05T12:34:28.063Z,2.93
2023-02-05T12:37:20.535Z,3.37
2023-02-05T12:39:54.206Z,4.33
2023-02-05T12:42:33.375Z,3.47
2023-02-05T12:45:20.035Z,3.80
2023-02-05T12:48:02.814Z,6.63
2023-02-05T12:51:03.385Z,3.37
2023-02-05T12:53:49.496Z,4.20
2023-02-05T12:56:37.917Z,5.67
2023-02-05T12:59:12.974Z,5.50
2023-02-05T13:01:46.523Z,9.93
2023-02-05T13:04:24.238Z,8.40
2023-02-05T13:07:00.427Z,9.17
2023-02-05T13:09:37.617Z,6.97
2023-02-05T13:12:10.997Z,5.63
2023-02-05T13:14:43.767Z,5.30
2023-02-05T13:17:18.578Z,9.20
2023-02-05T13:19:50.694Z,8.50
2023-02-05T13:22:41.609Z,6.70
2023-02-05T13:25:38.961Z,5.23
2023-02-05T13:28:42.191Z,3.70
2023-02-05T13:31:23.400Z,6.50
2023-02-05T13:33:52.948Z,5.93
2023-02-05T13:36:57.237Z,6.40
2023-02-05T13:39:52.632Z,6.93
2023-02-05T13:42:48.484Z,6.13
2023-02-05T13:45:41.582Z,5.47
2023-02-05T13:48:34.681Z,5.20
2023-02-05T13:51:23.061Z,6.10
2023-02-05T13:54:22.295Z,6.37
2023-02-05T13:57:05.438Z,6.17
2023-02-05T13:59:39.178Z,8.30
2023-02-05T14:02:32.855Z,4.90
2023-02-05T14:05:03.370Z,7.37
2023-02-05T14:07:34.316Z,5.37
2023-02-05T14:10:03.979Z,7.20
2023-02-05T14:12:36.097Z,6.50
2023-02-05T14:15:25.116Z,8.37
2023-02-05T14:17:56.607Z,7.33
2023-02-05T14:20:39.939Z,6.13
2023-02-05T14:23:17.323Z,7.50
2023-02-05T14:26:11.782Z,8.97
2023-02-05T14:28:53.620Z,8.67
2023-02-05T14:31:47.805Z,7.80
2023-02-05T14:34:54.695Z,6.80
2023-02-05T14:37:34.999Z,5.57
2023-02-05T14:40:27.309Z,7.17
2023-02-05T14:43:10.455Z,7.07
2023-02-05T14:45:47.254Z,6.53
2023-02-05T14:48:23.544Z,6.67
2023-02-05T14:51:09.893Z,5.87
2023-02-05T14:53:39.772Z,8.40
2023-02-05T14:56:08.944Z,8.90
2023-02-05T14:58:40.977Z,7.67
2023-02-05T15:01:42.905Z,7.67
2023-02-05T15:04:25.673Z,4.77
2023-02-05T15:06:55.066Z,7.07
2023-02-05T15:09:30.223Z,7.17
2023-02-05T15:12:17.271Z,7.07
2023-02-05T15:14:53.922Z,9.33
2023-02-05T15:17:52.299Z,5.37
2023-02-05T15:20:23.951Z,7.57
2023-02-05T15:22:57.874Z,5.33
2023-02-05T15:25:37.687Z,5.33
2023-02-05T15:28:11.168Z,5.87
2023-02-05T15:30:49.290Z,5.83
2023-02-05T15:33:26.504Z,5.43
2023-02-05T15:35:56.892Z,6.63
2023-02-05T15:38:33.693Z,7.05
2023-02-05T15:41:07.745Z,9.93
2023-02-05T15:43:36.128Z,6.03
2023-02-05T15:46:07.821Z,7.67
2023-02-05T15:48:39.779Z,6.73
2023-02-05T15:51:29.534Z,7.20
2023-02-05T15:53:59.873Z,5.93
2023-02-05T15:56:32.898Z,8.67
2023-02-05T15:59:13.748Z,6.37
2023-02-05T16:01:46.842Z,7.40
2023-02-05T16:04:20.928Z,10.77
2023-02-05T16:06:49.922Z,6.47
2023-02-05T16:09:19.557Z,8.10
2023-02-05T16:11:51.105Z,8.53
2023-02-05T16:14:21.467Z,8.53
2023-02-05T16:16:59.358Z,7.13
2023-02-05T16:19:34.146Z,11.30
2023-02-05T16:22:08.057Z,7.67
2023-02-05T16:24:39.389Z,7.67
2023-02-05T16:27:13.770Z,19.77
2023-02-05T16:29:48.267Z,10.27
2023-02-05T16:32:22.930Z,10.63
2023-02-05T16:34:52.969Z,9.30
2023-02-05T16:37:30.362Z,9.47
2023-02-05T16:40:01.697Z,7.53
2023-02-05T16:42:37.718Z,6.37
2023-02-05T16:45:22.310Z,6.73
2023-02-05T16:48:21.376Z,6.97
2023-02-05T16:50:52.260Z,11.00
2023-02-05T16:53:26.339Z,8.13
2023-02-05T16:55:59.080Z,6.40
2023-02-05T16:58:34.894Z,9.10
2023-02-05T17:01:04.208Z,8.33
2023-02-05T17:03:37.036Z,12.33
2023-02-05T17:06:13.451Z,7.90
2023-02-05T17:08:45.441Z,9.77
2023-02-05T17:11:35.459Z,9.90
2023-02-05T17:14:22.580Z,11.13
2023-02-05T17:16:56.918Z,14.67
2023-02-05T17:19:27.250Z,10.77
2023-02-05T17:22:22.032Z,9.60
2023-02-05T17:24:52.047Z,12.17
2023-02-05T17:27:28.123Z,11.70
2023-02-05T17:29:56.611Z,14.13
2023-02-05T17:32:25.748Z,13.57
2023-02-05T17:34:54.088Z,10.33
2023-02-05T17:37:23.817Z,11.03
2023-02-05T17:39:56.763Z,12.10
2023-02-05T17:42:27.169Z,15.90
2023-02-05T17:44:56.091Z,14.30
2023-02-05T17:47:24.418Z,13.83
2023-02-05T17:49:52.703Z,13.10
2023-02-05T17:52:21.027Z,11.90
2023-02-05T17:54:50.805Z,13.70
2023-02-05T17:57:21.433Z,13.17
2023-02-05T17:59:50.420Z,14.53
2023-02-05T18:02:19.093Z,16.02
2023-02-05T18:04:47.443Z,17.07
2023-02-05T18:07:22.747Z,14.67
2023-02-05T18:09:52.819Z,13.73
2023-02-05T18:12:21.709Z,16.57
2023-02-05T18:14:50.390Z,16.45
2023-02-05T18:17:18.938Z,20.60
2023-02-05T18:19:47.256Z,21.40
2023-02-05T18:22:15.879Z,24.80
2023-02-05T18:24:44.351Z,22.33
2023-02-05T18:27:14.075Z,18.50
2023-02-05T18:29:43.821Z,19.37
2023-02-05T18:32:12.484Z,18.73
2023-02-05T18:34:41.098Z,19.20
2023-02-05T18:37:09.680Z,19.00
2023-02-05T18:39:37.960Z,23.25
2023-02-05T18:42:06.734Z,26.83
2023-02-05T18:44:36.798Z,27.67
2023-02-05T18:47:06.067Z,22.03
2023-02-05T18:49:34.807Z,26.80
2023-02-05T18:52:03.452Z,26.40
2023-02-05T18:54:31.892Z,23.87
2023-02-05T18:57:00.164Z,24.90
2023-02-05T18:59:31.366Z,31.73
2023-02-05T19:02:01.145Z,31.60
2023-02-05T19:04:33.043Z,40.80
2023-02-05T19:07:01.586Z,34.20
2023-02-05T19:09:30.353Z,36.43
2023-02-05T19:11:58.738Z,37.60
2023-02-05T19:14:27.660Z,36.33
2023-02-05T19:16:56.286Z,39.60
2023-02-05T19:19:27.102Z,47.33
2023-02-05T19:22:00.106Z,45.43
2023-02-05T19:24:28.976Z,43.87
2023-02-05T19:26:59.179Z,43.73
2023-02-05T19:29:27.924Z,47.57
2023-02-05T19:31:57.501Z,51.00
2023-02-05T19:34:29.046Z,48.17
2023-02-05T19:36:59.878Z,40.50
2023-02-05T19:39:28.841Z,51.43
2023-02-05T19:41:57.140Z,46.87
2023-02-05T19:44:27.428Z,50.95
2023-02-05T19:46:56.842Z,45.27
2023-02-05T19:49:26.740Z,36.83
2023-02-05T19:51:56.474Z,40.53
2023-02-05T19:54:24.973Z,43.78
2023-02-05T19:56:53.826Z,34.63
2023-02-05T19:59:22.161Z,31.50
2023-02-05T20:01:50.795Z,25.53
2023-02-05T20:04:24.919Z,22.50
2023-02-05T20:06:58.871Z,27.87
2023-02-05T20:09:28.314Z,20.70
2023-02-05T20:11:56.784Z,23.07
2023-02-05T20:14:25.994Z,18.73
2023-02-05T20:16:54.967Z,17.83
2023-02-05T20:19:23.625Z,19.57
2023-02-05T20:21:52.348Z,21.80
2023-02-05T20:24:22.021Z,23.77
2023-02-05T20:26:53.001Z,18.13
2023-02-05T20:29:38.721Z,22.30
2023-02-05T20:32:08.887Z,20.57
2023-02-05T20:34:39.498Z,20.87
2023-02-05T20:37:09.529Z,22.10
2023-02-05T20:39:42.012Z,21.57
2023-02-05T20:42:13.498Z,24.67
2023-02-05T20:44:42.950Z,20.80
2023-02-05T20:47:13.415Z,24.67
2023-02-05T20:49:42.887Z,30.07
2023-02-05T20:52:12.404Z,23.03
2023-02-05T20:54:42.195Z,24.97
2023-02-05T20:57:10.567Z,25.93
2023-02-05T20:59:38.964Z,28.03
2023-02-05T21:02:07.988Z,28.07
2023-02-05T21:04:37.553Z,21.13
2023-02-05T21:07:09.112Z,28.92
2023-02-05T21:09:37.505Z,24.97
2023-02-05T21:12:07.987Z,28.30
2023-02-05T21:14:36.365Z,28.77
2023-02-05T21:17:04.800Z,23.03
2023-02-05T21:19:33.051Z,24.73
2023-02-05T21:22:01.474Z,24.40
2023-02-05T21:24:29.908Z,23.30
2023-02-05T21:26:58.257Z,28.57
2023-02-05T21:29:28.049Z,25.50
2023-02-05T21:31:56.661Z,22.80
2023-02-05T21:34:26.725Z,21.40
2023-02-05T21:36:56.021Z,22.27
2023-02-05T21:39:25.607Z,22.53
2023-02-05T21:41:54.745Z,21.43
2023-02-05T21:44:23.388Z,22.87
2023-02-05T21:46:55.350Z,22.93
2023-02-05T21:49:23.999Z,21.73
2023-02-05T21:51:53.691Z,24.03
2023-02-05T21:54:25.372Z,23.33
2023-02-05T21:56:54.106Z,25.83
2023-02-05T21:59:22.470Z,20.47
2023-02-05T22:01:52.553Z,23.60
2023-02-05T22:04:20.910Z,18.47
2023-02-05T22:06:52.481Z,22.40
2023-02-05T22:09:20.863Z,22.33
2023-02-05T22:11:51.030Z,18.60
2023-02-05T22:14:19.318Z,19.83
2023-02-05T22:16:47.707Z,23.07
2023-02-05T22:19:17.448Z,16.10
2023-02-05T22:21:45.733Z,23.97
2023-02-05T22:24:16.946Z,25.73
2023-02-05T22:26:46.481Z,23.03
2023-02-05T22:29:16.327Z,20.73
2023-02-05T22:31:45.402Z,25.33
2023-02-05T22:34:13.998Z,23.40
2023-02-05T22:36:43.796Z,22.83
2023-02-05T22:39:12.056Z,21.20
2023-02-05T22:41:43.058Z,21.20
2023-02-05T22:44:13.483Z,23.80
2023-02-05T22:46:43.565Z,23.47
2023-02-05T22:49:15.317Z,22.80
2023-02-05T22:51:46.174Z,24.60
2023-02-05T22:54:15.998Z,20.10
2023-02-05T22:56:44.595Z,18.37
2023-02-05T22:59:13.294Z,20.57
2023-02-05T23:01:41.718Z,20.97
2023-02-05T23:04:11.145Z,17.53
2023-02-05T23:06:41.759Z,23.43
2023-02-05T23:09:14.118Z,19.67
2023-02-05T23:11:43.286Z,22.13
2023-02-05T23:14:12.809Z,22.73
2023-02-05T23:16:42.859Z,23.77
2023-02-05T23:19:13.556Z,24.57
2023-02-05T23:21:42.409Z,21.77
2023-02-05T23:24:12.772Z,26.47
2023-02-05T23:26:43.946Z,25.90
2023-02-05T23:29:14.086Z,23.10
2023-02-05T23:31:42.778Z,23.17
2023-02-05T23:34:11.522Z,23.37
2023-02-05T23:36:40.054Z,20.97
2023-02-05T23:39:08.388Z,19.30
2023-02-05T23:41:39.971Z,18.63
2023-02-05T23:44:12.337Z,19.03
2023-02-05T23:46:41.663Z,21.37
2023-02-05T23:49:10.689Z,18.70
2023-02-05T23:51:39.431Z,23.33
2023-02-05T23:54:08.852Z,19.77
2023-02-05T23:56:38.794Z,16.43
2023-02-05T23:59:07.503Z,16.73
